createdAt,value
2022-10-06T00:01:03.959Z,8.40
2022-10-06T00:03:31.536Z,8.40
2022-10-06T00:06:00.487Z,8.40
2022-10-06T00:08:28.539Z,8.40
2022-10-06T00:10:56.607Z,8.40
2022-10-06T00:13:24.353Z,8.40
2022-10-06T00:15:51.805Z,8.40
2022-10-06T00:18:19.173Z,8.40
2022-10-06T00:20:53.959Z,8.40
2022-10-06T00:23:21.385Z,8.40
2022-10-06T00:25:48.818Z,8.40
2022-10-06T00:28:16.881Z,8.50
2022-10-06T00:30:46.153Z,8.40
2022-10-06T00:33:16.088Z,8.40
2022-10-06T00:35:43.913Z,8.40
2022-10-06T00:38:12.462Z,8.40
2022-10-06T00:40:46.836Z,8.50
2022-10-06T00:43:33.301Z,8.50
2022-10-06T00:46:00.777Z,8.50
2022-10-06T00:48:29.026Z,8.50
2022-10-06T00:50:57.987Z,8.50
2022-10-06T00:53:27.500Z,8.50
2022-10-06T00:55:55.079Z,8.60
2022-10-06T00:58:22.986Z,8.50
2022-10-06T01:00:54.234Z,8.50
2022-10-06T01:03:24.187Z,8.50
2022-10-06T01:05:51.792Z,8.50
2022-10-06T01:08:21.477Z,8.40
2022-10-06T01:10:48.790Z,8.40
2022-10-06T01:13:17.557Z,8.40
2022-10-06T01:15:48.919Z,8.40
2022-10-06T01:18:18.671Z,8.40
2022-10-06T01:20:49.371Z,8.40
2022-10-06T01:23:16.740Z,8.40
2022-10-06T01:25:44.490Z,8.50
2022-10-06T01:28:12.972Z,8.50
2022-10-06T01:30:52.831Z,8.50
2022-10-06T01:33:21.968Z,8.40
2022-10-06T01:35:51.431Z,8.40
2022-10-06T01:38:20.058Z,8.40
2022-10-06T01:40:51.215Z,8.40
2022-10-06T01:43:18.652Z,8.40
2022-10-06T01:45:46.056Z,8.50
2022-10-06T01:48:13.397Z,8.40
2022-10-06T01:50:41.172Z,8.40
2022-10-06T01:53:08.544Z,8.40
2022-10-06T01:55:36.209Z,8.30
2022-10-06T01:58:05.568Z,8.40
2022-10-06T02:00:33.249Z,8.30
2022-10-06T02:03:00.701Z,8.30
2022-10-06T02:05:28.250Z,8.30
2022-10-06T02:07:55.634Z,8.30
2022-10-06T02:10:23.039Z,8.30
2022-10-06T02:12:52.677Z,8.30
2022-10-06T02:15:21.994Z,8.30
2022-10-06T02:17:49.431Z,8.30
2022-10-06T02:20:16.772Z,8.30
2022-10-06T02:22:44.598Z,8.20
2022-10-06T02:25:12.413Z,8.30
2022-10-06T02:27:39.851Z,8.30
2022-10-06T02:30:08.954Z,8.30
2022-10-06T02:32:39.060Z,8.20
2022-10-06T02:35:07.783Z,8.20
2022-10-06T02:37:35.554Z,8.20
2022-10-06T02:40:03.631Z,8.20
2022-10-06T02:42:34.838Z,8.20
2022-10-06T02:45:02.328Z,8.20
2022-10-06T02:47:32.567Z,8.20
2022-10-06T02:50:01.980Z,8.20
2022-10-06T02:52:34.635Z,8.20
2022-10-06T02:55:03.107Z,8.20
2022-10-06T02:57:31.359Z,8.20
2022-10-06T03:00:00.448Z,8.20
2022-10-06T03:02:30.988Z,8.20
2022-10-06T03:04:58.833Z,8.20
2022-10-06T03:07:26.400Z,8.30
2022-10-06T03:09:53.850Z,8.30
2022-10-06T03:12:23.681Z,8.30
2022-10-06T03:14:51.202Z,8.30
2022-10-06T03:17:18.526Z,8.30
2022-10-06T03:19:51.073Z,8.30
2022-10-06T03:22:18.575Z,9.30
2022-10-06T03:24:54.487Z,8.40
2022-10-06T03:27:22.473Z,8.30
2022-10-06T03:29:51.929Z,8.30
2022-10-06T03:32:24.114Z,8.30
2022-10-06T03:34:55.610Z,8.20
2022-10-06T03:37:23.150Z,8.20
2022-10-06T03:39:51.701Z,8.10
2022-10-06T03:42:19.767Z,8.20
2022-10-06T03:44:47.896Z,8.10
2022-10-06T03:47:17.376Z,8.10
2022-10-06T03:49:45.901Z,8.00
2022-10-06T03:52:20.187Z,8.00
2022-10-06T03:54:51.256Z,8.00
2022-10-06T03:57:18.991Z,8.00
2022-10-06T03:59:46.324Z,8.10
2022-10-06T04:02:15.065Z,8.10
2022-10-06T04:04:42.543Z,8.00
2022-10-06T04:07:11.506Z,8.00
2022-10-06T04:09:39.939Z,8.10
2022-10-06T04:12:08.867Z,8.00
2022-10-06T04:14:38.068Z,8.00
2022-10-06T04:17:06.860Z,8.10
2022-10-06T04:19:36.672Z,8.00
2022-10-06T04:22:04.031Z,8.10
2022-10-06T04:24:32.406Z,8.10
2022-10-06T04:27:19.826Z,8.00
2022-10-06T04:29:56.397Z,8.00
2022-10-06T04:32:24.437Z,8.00
2022-10-06T04:34:52.011Z,8.00
2022-10-06T04:37:19.691Z,8.00
2022-10-06T04:39:47.044Z,7.90
2022-10-06T04:42:14.446Z,7.90
2022-10-06T04:44:41.881Z,7.80
2022-10-06T04:47:09.231Z,7.80
2022-10-06T04:49:36.690Z,7.80
2022-10-06T04:52:04.774Z,7.80
2022-10-06T04:54:35.529Z,7.70
2022-10-06T04:57:05.904Z,7.80
2022-10-06T04:59:52.334Z,7.70
2022-10-06T05:02:20.745Z,7.70
2022-10-06T05:04:52.729Z,7.70
2022-10-06T05:07:22.768Z,7.70
2022-10-06T05:09:50.565Z,7.70
2022-10-06T05:12:18.768Z,7.70
2022-10-06T05:14:47.031Z,7.70
2022-10-06T05:17:15.196Z,7.70
2022-10-06T05:19:47.030Z,7.70
2022-10-06T05:22:14.484Z,7.70
2022-10-06T05:24:41.856Z,7.70
2022-10-06T05:27:09.178Z,7.80
2022-10-06T05:29:36.587Z,7.80
2022-10-06T05:32:06.722Z,7.90
2022-10-06T05:34:35.351Z,7.90
2022-10-06T05:37:02.771Z,8.00
2022-10-06T05:39:30.476Z,8.00
2022-10-06T05:41:59.233Z,8.10
2022-10-06T05:44:27.746Z,8.10
2022-10-06T05:46:57.159Z,8.10
2022-10-06T05:49:24.602Z,8.20
2022-10-06T05:51:56.797Z,8.20
2022-10-06T05:54:27.607Z,8.20
2022-10-06T05:56:55.089Z,8.20
2022-10-06T05:59:23.139Z,8.20
2022-10-06T06:01:52.311Z,8.30
2022-10-06T06:04:31.465Z,8.30
2022-10-06T06:06:58.923Z,8.30
2022-10-06T06:09:28.835Z,8.30
2022-10-06T06:12:00.335Z,8.30
2022-10-06T06:15:22.827Z,8.40
2022-10-06T06:17:59.201Z,8.40
2022-10-06T06:20:26.717Z,8.50
2022-10-06T06:22:54.225Z,8.50
2022-10-06T06:25:26.174Z,8.50
2022-10-06T06:27:55.506Z,8.60
2022-10-06T06:30:23.965Z,8.60
2022-10-06T06:32:51.465Z,8.60
2022-10-06T06:35:18.885Z,8.70
2022-10-06T06:37:46.483Z,8.80
2022-10-06T06:40:14.146Z,8.80
2022-10-06T06:42:42.007Z,8.90
2022-10-06T06:45:34.676Z,8.90
2022-10-06T06:48:18.358Z,9.00
2022-10-06T06:50:55.377Z,9.00
2022-10-06T06:53:22.898Z,9.00
2022-10-06T06:55:51.257Z,9.10
2022-10-06T06:58:21.373Z,9.10
2022-10-06T07:00:48.959Z,9.20
2022-10-06T07:03:32.810Z,9.20
2022-10-06T07:06:10.742Z,9.30
2022-10-06T07:08:43.601Z,9.40
2022-10-06T07:11:12.590Z,9.40
2022-10-06T07:13:40.726Z,9.50
2022-10-06T07:16:29.037Z,9.60
2022-10-06T07:19:15.691Z,9.60
2022-10-06T07:22:01.619Z,9.70
2022-10-06T07:24:48.930Z,9.70
2022-10-06T07:27:16.317Z,9.80
2022-10-06T07:29:45.078Z,9.90
2022-10-06T07:32:13.061Z,10.00
2022-10-06T07:34:44.340Z,10.10
2022-10-06T07:37:12.129Z,10.20
2022-10-06T07:39:39.620Z,10.30
2022-10-06T07:42:07.868Z,10.40
2022-10-06T07:44:36.130Z,10.40
2022-10-06T07:47:05.093Z,10.50
2022-10-06T07:49:50.969Z,10.70
2022-10-06T07:52:18.973Z,10.70
2022-10-06T07:54:49.521Z,10.80
2022-10-06T07:57:55.250Z,10.80
2022-10-06T08:00:22.758Z,10.90
2022-10-06T08:02:50.229Z,11.00
2022-10-06T08:05:17.608Z,11.00
2022-10-06T08:07:44.936Z,11.10
2022-10-06T08:10:12.435Z,11.10
2022-10-06T08:12:40.806Z,11.20
2022-10-06T08:15:08.824Z,11.50
2022-10-06T08:17:37.343Z,11.30
2022-10-06T08:20:12.046Z,11.40
2022-10-06T08:22:40.165Z,11.40
2022-10-06T08:25:09.344Z,11.50
2022-10-06T08:27:37.436Z,11.50
2022-10-06T08:30:05.745Z,11.60
2022-10-06T08:32:33.984Z,11.60
2022-10-06T08:35:01.718Z,11.70
2022-10-06T08:37:29.632Z,11.70
2022-10-06T08:39:57.220Z,11.80
2022-10-06T08:42:24.882Z,11.80
2022-10-06T08:45:02.886Z,11.90
2022-10-06T08:47:34.749Z,12.00
2022-10-06T08:50:04.114Z,12.20
2022-10-06T08:52:54.297Z,12.20
2022-10-06T08:55:40.612Z,12.30
2022-10-06T08:58:08.224Z,12.50
2022-10-06T09:00:37.207Z,12.60
2022-10-06T09:03:05.114Z,12.70
2022-10-06T09:05:34.755Z,12.80
2022-10-06T09:08:05.248Z,12.80
2022-10-06T09:10:35.409Z,13.00
2022-10-06T09:13:06.631Z,13.70
2022-10-06T09:15:44.934Z,13.10
2022-10-06T09:18:13.306Z,13.30
2022-10-06T09:20:52.141Z,13.40
2022-10-06T09:23:42.608Z,13.60
2022-10-06T09:26:11.944Z,13.80
2022-10-06T09:28:39.394Z,13.90
2022-10-06T09:31:18.148Z,14.00
2022-10-06T09:33:46.041Z,14.00
2022-10-06T09:36:16.013Z,13.90
2022-10-06T09:38:49.324Z,13.40
2022-10-06T09:41:16.746Z,14.00
2022-10-06T09:43:52.440Z,13.90
2022-10-06T09:46:29.010Z,13.90
2022-10-06T09:49:17.594Z,13.90
2022-10-06T09:52:01.600Z,13.90
2022-10-06T09:54:29.562Z,13.90
2022-10-06T09:57:00.144Z,13.90
2022-10-06T09:59:29.537Z,13.90
2022-10-06T10:01:59.811Z,14.00
2022-10-06T10:04:30.418Z,14.10
2022-10-06T10:07:24.285Z,14.20
2022-10-06T10:09:52.207Z,14.50
2022-10-06T10:12:31.120Z,14.70
2022-10-06T10:15:01.329Z,14.80
2022-10-06T10:17:29.252Z,14.90
2022-10-06T10:19:56.873Z,14.90
2022-10-06T10:22:32.120Z,15.00
2022-10-06T10:25:13.863Z,15.00
2022-10-06T10:27:55.122Z,15.00
2022-10-06T10:30:23.795Z,15.10
2022-10-06T10:33:15.582Z,15.10
2022-10-06T10:35:48.523Z,15.10
2022-10-06T10:38:23.257Z,15.20
2022-10-06T10:41:02.860Z,15.30
2022-10-06T10:43:46.292Z,15.40
2022-10-06T10:46:19.920Z,15.50
2022-10-06T10:48:51.532Z,15.70
2022-10-06T10:51:22.131Z,15.80
2022-10-06T10:53:51.848Z,16.00
2022-10-06T10:56:21.148Z,16.10
2022-10-06T10:58:52.584Z,16.20
2022-10-06T11:01:34.031Z,15.60
2022-10-06T11:04:02.459Z,16.40
2022-10-06T11:06:41.444Z,16.40
2022-10-06T11:09:19.349Z,16.50
2022-10-06T11:12:04.937Z,16.60
2022-10-06T11:14:51.050Z,16.60
2022-10-06T11:17:40.187Z,16.50
2022-10-06T11:20:31.100Z,16.40
2022-10-06T11:23:08.491Z,16.40
2022-10-06T11:25:59.622Z,16.30
2022-10-06T11:28:32.147Z,16.20
2022-10-06T11:31:03.060Z,16.10
2022-10-06T11:33:40.998Z,16.00
2022-10-06T11:36:11.768Z,16.00
2022-10-06T11:38:53.830Z,16.00
2022-10-06T11:41:29.704Z,16.20
2022-10-06T11:44:05.609Z,16.40
2022-10-06T11:46:37.481Z,16.80
2022-10-06T11:49:24.480Z,17.00
2022-10-06T11:51:55.762Z,17.40
2022-10-06T11:54:34.809Z,17.70
2022-10-06T11:57:02.266Z,18.00
2022-10-06T11:59:31.382Z,18.40
2022-10-06T12:01:59.212Z,18.50
2022-10-06T12:04:26.805Z,18.60
2022-10-06T12:06:55.627Z,18.60
2022-10-06T12:09:26.112Z,18.70
2022-10-06T12:11:54.501Z,19.00
2022-10-06T12:17:40.883Z,18.80
2022-10-06T12:20:44.113Z,18.60
2022-10-06T12:23:18.116Z,18.50
2022-10-06T12:25:50.551Z,18.60
2022-10-06T12:28:21.042Z,18.70
2022-10-06T12:30:54.547Z,19.10
2022-10-06T12:33:34.277Z,19.40
2022-10-06T12:36:02.592Z,19.70
2022-10-06T12:38:43.597Z,19.90
2022-10-06T12:41:14.604Z,20.20
2022-10-06T12:43:48.014Z,20.50
2022-10-06T12:46:18.306Z,20.40
2022-10-06T12:49:04.224Z,20.30
2022-10-06T12:51:51.366Z,20.40
2022-10-06T12:54:23.047Z,20.50
2022-10-06T12:56:58.920Z,20.50
2022-10-06T12:59:32.261Z,20.40
2022-10-06T13:02:04.846Z,20.10
2022-10-06T13:04:34.721Z,19.60
2022-10-06T13:07:10.989Z,19.30
2022-10-06T13:09:38.382Z,19.10
2022-10-06T13:12:20.728Z,18.90
2022-10-06T13:14:48.833Z,18.80
2022-10-06T13:17:16.220Z,18.50
2022-10-06T13:19:44.872Z,18.50
2022-10-06T13:22:13.045Z,18.40
2022-10-06T13:24:40.688Z,18.40
2022-10-06T13:27:16.251Z,18.40
2022-10-06T13:29:43.621Z,18.30
2022-10-06T13:32:17.311Z,18.10
2022-10-06T13:34:45.369Z,18.00
2022-10-06T13:39:46.705Z,17.70
2022-10-06T13:42:17.751Z,17.60
2022-10-06T13:44:49.557Z,17.60
2022-10-06T13:47:18.345Z,17.60
2022-10-06T13:52:24.128Z,17.50
2022-10-06T13:54:51.513Z,17.50
2022-10-06T13:57:34.213Z,17.40
2022-10-06T14:00:02.547Z,17.20
2022-10-06T14:02:33.306Z,17.10
2022-10-06T14:05:19.380Z,17.00
2022-10-06T14:07:48.045Z,17.00
2022-10-06T14:10:23.282Z,16.90
2022-10-06T14:12:50.703Z,16.90
2022-10-06T14:15:26.046Z,16.90
2022-10-06T14:17:55.280Z,16.90
2022-10-06T14:20:43.647Z,16.90
2022-10-06T14:23:29.935Z,17.00
2022-10-06T14:25:57.314Z,17.10
2022-10-06T14:28:24.835Z,17.10
2022-10-06T14:30:52.685Z,17.00
2022-10-06T14:33:20.096Z,17.00
2022-10-06T14:35:48.469Z,17.00
2022-10-06T14:38:16.190Z,16.90
2022-10-06T14:40:43.751Z,16.90
2022-10-06T14:43:11.414Z,17.00
2022-10-06T14:45:42.459Z,17.00
2022-10-06T14:48:10.696Z,17.10
2022-10-06T14:50:38.166Z,17.20
2022-10-06T14:53:05.677Z,17.20
2022-10-06T14:55:33.048Z,17.10
2022-10-06T14:58:00.760Z,17.10
2022-10-06T15:00:29.033Z,17.10
2022-10-06T15:02:56.673Z,17.00
2022-10-06T15:05:24.151Z,16.90
2022-10-06T15:08:10.362Z,17.00
2022-10-06T15:10:38.978Z,16.90
2022-10-06T15:13:08.420Z,16.90
2022-10-06T15:15:36.199Z,16.90
2022-10-06T15:18:03.838Z,17.00
2022-10-06T15:20:31.517Z,17.00
2022-10-06T15:22:58.891Z,17.00
2022-10-06T15:25:45.766Z,17.10
2022-10-06T15:28:32.320Z,17.10
2022-10-06T15:30:59.873Z,17.20
2022-10-06T15:33:30.610Z,17.20
2022-10-06T15:36:16.755Z,17.20
2022-10-06T15:38:44.223Z,17.20
2022-10-06T15:41:11.621Z,17.10
2022-10-06T15:44:00.426Z,17.10
2022-10-06T15:46:32.220Z,17.00
2022-10-06T15:49:04.623Z,16.90
2022-10-06T15:51:34.979Z,16.90
2022-10-06T15:54:02.398Z,16.80
2022-10-06T15:56:34.401Z,16.80
2022-10-06T15:59:02.200Z,16.70
2022-10-06T16:01:39.286Z,16.70
2022-10-06T16:04:13.946Z,16.70
2022-10-06T16:06:49.596Z,16.80
2022-10-06T16:09:18.829Z,16.80
2022-10-06T16:11:47.080Z,16.80
2022-10-06T16:14:15.285Z,16.80
2022-10-06T16:16:43.774Z,16.80
2022-10-06T16:19:11.843Z,16.80
2022-10-06T16:21:39.856Z,16.80
2022-10-06T16:24:07.522Z,16.80
2022-10-06T16:26:35.195Z,16.80
2022-10-06T16:29:03.782Z,16.90
2022-10-06T16:31:31.757Z,16.80
2022-10-06T16:33:59.280Z,16.80
2022-10-06T16:36:26.729Z,16.70
2022-10-06T16:38:54.243Z,16.60
2022-10-06T16:41:21.882Z,16.60
2022-10-06T16:43:51.581Z,16.50
2022-10-06T16:46:23.006Z,16.40
2022-10-06T16:48:52.236Z,16.40
2022-10-06T16:51:23.975Z,16.40
2022-10-06T16:53:52.631Z,16.40
2022-10-06T16:56:21.693Z,16.20
2022-10-06T16:58:50.439Z,16.30
2022-10-06T17:01:17.926Z,16.20
2022-10-06T17:03:45.469Z,16.10
2022-10-06T17:06:14.782Z,16.10
2022-10-06T17:08:42.592Z,16.00
2022-10-06T17:11:14.151Z,16.00
2022-10-06T17:13:43.956Z,15.90
2022-10-06T17:16:31.056Z,15.90
2022-10-06T17:18:59.208Z,15.80
2022-10-06T17:21:44.840Z,15.80
2022-10-06T17:24:13.706Z,15.80
2022-10-06T17:26:42.900Z,15.70
2022-10-06T17:29:14.960Z,15.70
2022-10-06T17:31:43.331Z,15.70
2022-10-06T17:34:12.511Z,15.60
2022-10-06T17:36:40.678Z,15.60
2022-10-06T17:39:08.804Z,15.60
2022-10-06T17:41:37.166Z,15.50
2022-10-06T17:44:06.032Z,15.50
2022-10-06T17:46:37.428Z,15.50
2022-10-06T17:49:07.626Z,15.50
2022-10-06T17:51:36.032Z,15.40
2022-10-06T17:54:04.871Z,15.40
2022-10-06T17:56:34.529Z,15.40
2022-10-06T17:59:05.114Z,15.40
2022-10-06T18:01:33.463Z,15.40
2022-10-06T18:04:01.472Z,15.30
2022-10-06T18:06:30.205Z,15.30
2022-10-06T18:09:01.020Z,15.30
2022-10-06T18:11:48.226Z,15.30
2022-10-06T18:14:17.121Z,15.30
2022-10-06T18:16:46.197Z,15.30
2022-10-06T18:19:15.234Z,15.30
2022-10-06T18:21:43.798Z,15.30
2022-10-06T18:24:18.268Z,15.20
2022-10-06T18:26:48.176Z,15.20
2022-10-06T18:29:16.426Z,15.20
2022-10-06T18:31:44.694Z,15.20
2022-10-06T18:37:00.441Z,15.10
2022-10-06T18:39:31.354Z,15.10
2022-10-06T18:42:05.329Z,15.10
2022-10-06T18:44:51.397Z,15.10
2022-10-06T18:47:37.813Z,15.10
2022-10-06T18:50:05.501Z,15.00
2022-10-06T18:52:33.007Z,15.00
2022-10-06T18:55:00.512Z,15.00
2022-10-06T18:57:28.183Z,14.90
2022-10-06T18:59:55.697Z,14.90
2022-10-06T19:02:23.331Z,14.90
2022-10-06T19:04:50.981Z,14.90
2022-10-06T19:07:18.408Z,14.90
2022-10-06T19:09:47.083Z,14.80
2022-10-06T19:12:14.549Z,14.80
2022-10-06T19:14:47.710Z,14.80
2022-10-06T19:17:15.997Z,14.80
2022-10-06T19:19:51.509Z,14.80
2022-10-06T19:22:23.861Z,14.80
2022-10-06T19:24:52.227Z,14.80
2022-10-06T19:27:24.373Z,14.80
2022-10-06T19:29:54.662Z,14.80
2022-10-06T19:32:24.181Z,14.70
2022-10-06T19:34:52.382Z,14.70
2022-10-06T19:37:19.797Z,14.70
2022-10-06T19:39:50.178Z,14.70
2022-10-06T19:42:37.285Z,14.70
2022-10-06T19:45:05.792Z,14.60
2022-10-06T19:47:33.286Z,14.70
2022-10-06T19:50:05.945Z,14.70
2022-10-06T19:52:37.721Z,14.60
2022-10-06T19:55:05.256Z,14.70
2022-10-06T19:57:33.615Z,14.70
2022-10-06T20:00:01.384Z,14.70
2022-10-06T20:02:29.038Z,14.50
2022-10-06T20:04:57.012Z,14.60
2022-10-06T20:07:27.723Z,14.60
2022-10-06T20:09:55.613Z,14.50
2022-10-06T20:12:25.349Z,14.50
2022-10-06T20:14:53.912Z,14.50
2022-10-06T20:17:21.495Z,14.50
2022-10-06T20:19:48.812Z,14.50
2022-10-06T20:22:16.198Z,14.50
2022-10-06T20:24:43.896Z,14.50
2022-10-06T20:27:11.362Z,14.50
2022-10-06T20:29:38.928Z,14.50
2022-10-06T20:32:06.670Z,14.50
2022-10-06T20:34:34.494Z,14.50
2022-10-06T20:37:02.746Z,14.50
2022-10-06T20:39:49.952Z,14.40
2022-10-06T20:42:17.809Z,14.50
2022-10-06T20:44:45.658Z,14.50
2022-10-06T20:47:13.494Z,14.40
2022-10-06T20:49:42.611Z,14.40
2022-10-06T20:52:10.262Z,14.40
2022-10-06T20:54:37.832Z,14.40
2022-10-06T20:57:06.013Z,14.40
2022-10-06T20:59:35.399Z,14.40
2022-10-06T21:02:04.625Z,14.40
2022-10-06T21:04:32.095Z,14.40
2022-10-06T21:06:59.579Z,14.40
2022-10-06T21:09:28.549Z,14.30
2022-10-06T21:11:57.469Z,14.40
2022-10-06T21:14:24.905Z,14.40
2022-10-06T21:16:52.360Z,14.40
2022-10-06T21:19:19.836Z,14.40
2022-10-06T21:21:53.325Z,14.40
2022-10-06T21:24:21.200Z,14.40
2022-10-06T21:26:48.765Z,14.40
2022-10-06T21:29:16.548Z,14.40
2022-10-06T21:31:44.901Z,14.40
2022-10-06T21:34:14.319Z,14.30
2022-10-06T21:36:43.620Z,14.30
2022-10-06T21:39:11.993Z,14.30
2022-10-06T21:41:39.778Z,14.30
2022-10-06T21:44:08.295Z,14.30
2022-10-06T21:46:35.829Z,14.30
2022-10-06T21:49:04.782Z,14.30
2022-10-06T21:51:32.465Z,14.30
2022-10-06T21:54:00.844Z,14.30
2022-10-06T21:56:29.411Z,14.40
2022-10-06T21:58:57.371Z,14.40
2022-10-06T22:01:28.885Z,14.40
2022-10-06T22:03:57.704Z,14.40
2022-10-06T22:06:25.148Z,14.40
2022-10-06T22:08:52.566Z,14.40
2022-10-06T22:11:21.108Z,14.40
2022-10-06T22:13:49.920Z,14.40
2022-10-06T22:16:19.065Z,14.30
2022-10-06T22:18:46.949Z,14.30
2022-10-06T22:21:16.644Z,14.30
2022-10-06T22:23:44.981Z,14.20
2022-10-06T22:26:13.099Z,14.20
2022-10-06T22:28:44.564Z,14.10
2022-10-06T22:31:12.252Z,14.10
2022-10-06T22:33:40.181Z,14.00
2022-10-06T22:36:08.561Z,14.00
2022-10-06T22:38:36.025Z,14.00
2022-10-06T22:41:04.444Z,13.90
2022-10-06T22:43:31.832Z,13.90
2022-10-06T22:45:59.347Z,13.80
2022-10-06T22:48:27.067Z,13.90
2022-10-06T22:50:54.561Z,13.80
2022-10-06T22:53:22.952Z,13.80
2022-10-06T22:55:50.602Z,13.80
2022-10-06T22:58:18.681Z,13.80
2022-10-06T23:00:46.445Z,13.70
2022-10-06T23:03:14.010Z,13.70
2022-10-06T23:05:41.416Z,13.80
2022-10-06T23:08:08.772Z,13.70
2022-10-06T23:10:36.577Z,13.70
2022-10-06T23:13:03.995Z,13.70
2022-10-06T23:15:31.335Z,13.70
2022-10-06T23:17:58.710Z,13.60
2022-10-06T23:20:26.101Z,13.60
2022-10-06T23:22:54.618Z,13.60
2022-10-06T23:25:27.020Z,13.50
2022-10-06T23:27:54.810Z,13.50
2022-10-06T23:30:22.253Z,13.50
2022-10-06T23:32:49.547Z,13.50
2022-10-06T23:35:17.083Z,13.50
2022-10-06T23:37:44.734Z,13.50
2022-10-06T23:40:12.283Z,13.50
2022-10-06T23:42:39.749Z,13.50
2022-10-06T23:45:08.741Z,13.50
2022-10-06T23:47:36.339Z,13.60
2022-10-06T23:50:03.934Z,13.50
2022-10-06T23:52:31.230Z,13.50
2022-10-06T23:54:58.515Z,13.60
2022-10-06T23:57:25.919Z,13.60
2022-10-06T23:59:53.401Z,13.50
